createdAt,value
2024-02-29T00:00:59.891Z,41.28
2024-02-29T00:01:59.953Z,41.25
2024-02-29T00:02:59.900Z,41.26
2024-02-29T00:03:59.988Z,41.29
2024-02-29T00:05:00.006Z,41.25
2024-02-29T00:06:00.080Z,41.26
2024-02-29T00:07:00.177Z,41.28
2024-02-29T00:08:00.165Z,41.26
2024-02-29T00:09:00.235Z,41.25
2024-02-29T00:10:00.332Z,41.27
2024-02-29T00:11:00.364Z,41.25
2024-02-29T00:12:00.429Z,41.30
2024-02-29T00:13:00.477Z,41.25
2024-02-29T00:14:00.488Z,41.29
2024-02-29T00:15:00.543Z,41.23
2024-02-29T00:16:00.574Z,41.24
2024-02-29T00:17:00.685Z,41.26
2024-02-29T00:18:00.738Z,41.23
2024-02-29T00:19:00.747Z,41.28
2024-02-29T00:20:00.800Z,41.23
2024-02-29T00:21:00.828Z,41.23
2024-02-29T00:22:00.891Z,41.26
2024-02-29T00:23:00.939Z,41.23
2024-02-29T00:24:00.991Z,41.22
2024-02-29T00:25:01.127Z,41.21
2024-02-29T00:26:01.069Z,41.23
2024-02-29T00:27:01.157Z,41.23
2024-02-29T00:28:01.259Z,41.23
2024-02-29T00:29:01.242Z,41.23
2024-02-29T00:30:01.284Z,41.21
2024-02-29T00:31:01.378Z,41.21
2024-02-29T00:32:01.399Z,41.25
2024-02-29T00:33:01.477Z,41.26
2024-02-29T00:34:01.512Z,41.21
2024-02-29T00:35:01.538Z,41.21
2024-02-29T00:36:09.233Z,41.18
2024-02-29T00:37:02.622Z,41.16
2024-02-29T00:38:01.601Z,41.19
2024-02-29T00:39:06.426Z,41.19
2024-02-29T00:40:02.643Z,41.18
2024-02-29T00:41:01.609Z,41.22
2024-02-29T00:42:01.601Z,41.18
2024-02-29T00:43:01.662Z,41.16
2024-02-29T00:44:01.639Z,41.20
2024-02-29T00:45:01.638Z,41.19
2024-02-29T00:46:01.674Z,41.15
2024-02-29T00:47:01.625Z,41.15
2024-02-29T00:48:01.663Z,41.12
2024-02-29T00:49:01.684Z,41.14
2024-02-29T00:50:01.641Z,41.14
2024-02-29T00:51:01.702Z,41.11
2024-02-29T00:52:01.732Z,41.12
2024-02-29T00:53:01.791Z,41.09
2024-02-29T00:54:01.938Z,41.11
2024-02-29T00:55:01.936Z,41.13
2024-02-29T00:56:01.960Z,41.11
2024-02-29T00:57:02.091Z,41.14
2024-02-29T00:58:02.123Z,41.12
2024-02-29T00:59:02.144Z,41.12
2024-02-29T01:00:02.177Z,41.11
2024-02-29T01:01:02.373Z,41.11
2024-02-29T01:02:02.923Z,41.07
2024-02-29T01:03:02.378Z,41.13
2024-02-29T01:04:02.503Z,41.12
2024-02-29T01:05:02.477Z,41.09
2024-02-29T01:06:02.558Z,41.16
2024-02-29T01:07:02.709Z,41.12
2024-02-29T01:08:02.674Z,41.07
2024-02-29T01:09:02.719Z,41.07
2024-02-29T01:10:02.864Z,41.07
2024-02-29T01:11:02.887Z,41.09
2024-02-29T01:12:02.922Z,41.08
2024-02-29T01:13:03.007Z,41.09
2024-02-29T01:14:13.097Z,41.05
2024-02-29T01:15:03.031Z,41.08
2024-02-29T01:16:03.202Z,41.08
2024-02-29T01:17:03.031Z,41.08
2024-02-29T01:18:03.064Z,41.08
2024-02-29T01:19:03.087Z,41.08
2024-02-29T01:20:03.047Z,41.03
2024-02-29T01:21:03.040Z,41.04
2024-02-29T01:22:03.071Z,41.00
2024-02-29T01:23:03.051Z,41.08
2024-02-29T01:24:03.064Z,41.04
2024-02-29T01:25:03.127Z,41.05
2024-02-29T01:26:03.059Z,41.04
2024-02-29T01:27:03.063Z,41.05
2024-02-29T01:28:03.140Z,41.01
2024-02-29T01:29:03.062Z,41.05
2024-02-29T01:30:03.074Z,41.08
2024-02-29T01:31:03.237Z,41.04
2024-02-29T01:32:12.087Z,41.08
2024-02-29T01:33:04.101Z,41.04
2024-02-29T01:34:03.130Z,41.09
2024-02-29T01:35:03.074Z,41.04
2024-02-29T01:36:03.059Z,41.03
2024-02-29T01:37:03.103Z,41.02
2024-02-29T01:38:03.081Z,41.05
2024-02-29T01:39:03.093Z,41.06
2024-02-29T01:40:03.206Z,41.04
2024-02-29T01:41:03.069Z,41.06
2024-02-29T01:42:03.085Z,41.04
2024-02-29T01:43:03.190Z,41.03
2024-02-29T01:44:03.231Z,41.01
2024-02-29T01:45:03.284Z,41.01
2024-02-29T01:46:03.360Z,41.04
2024-02-29T01:47:03.402Z,41.04
2024-02-29T01:48:03.515Z,41.01
2024-02-29T01:49:03.554Z,41.01
2024-02-29T01:50:03.818Z,41.01
2024-02-29T01:51:03.672Z,41.01
2024-02-29T01:52:03.781Z,41.05
2024-02-29T01:53:03.811Z,41.02
2024-02-29T01:54:03.886Z,40.97
2024-02-29T01:55:04.099Z,40.99
2024-02-29T01:56:04.025Z,41.01
2024-02-29T01:57:04.088Z,40.98
2024-02-29T01:58:04.260Z,41.01
2024-02-29T01:59:04.272Z,40.99
2024-02-29T02:00:04.342Z,40.99
2024-02-29T02:01:04.433Z,40.96
2024-02-29T02:02:04.428Z,40.96
2024-02-29T02:03:04.472Z,40.99
2024-02-29T02:04:06.394Z,40.98
2024-02-29T02:05:04.617Z,40.97
2024-02-29T02:06:04.664Z,40.94
2024-02-29T02:07:04.759Z,40.97
2024-02-29T02:08:04.815Z,40.95
2024-02-29T02:09:04.888Z,40.98
2024-02-29T02:10:04.995Z,40.94
2024-02-29T02:11:05.042Z,40.90
2024-02-29T02:12:05.073Z,40.95
2024-02-29T02:13:05.216Z,40.93
2024-02-29T02:14:05.221Z,40.97
2024-02-29T02:15:05.265Z,40.98
2024-02-29T02:16:05.390Z,40.97
2024-02-29T02:17:05.413Z,40.97
2024-02-29T02:18:05.523Z,40.96
2024-02-29T02:19:05.615Z,40.93
2024-02-29T02:20:05.639Z,40.90
2024-02-29T02:21:05.695Z,40.93
2024-02-29T02:22:05.984Z,40.93
2024-02-29T02:23:05.828Z,40.91
2024-02-29T02:24:06.359Z,40.94
2024-02-29T02:25:06.038Z,40.92
2024-02-29T02:26:06.058Z,40.91
2024-02-29T02:27:06.126Z,40.91
2024-02-29T02:28:06.289Z,40.95
2024-02-29T02:29:06.404Z,40.94
2024-02-29T02:30:06.346Z,40.95
2024-02-29T02:31:06.430Z,40.95
2024-02-29T02:32:06.471Z,40.94
2024-02-29T02:33:06.608Z,40.91
2024-02-29T02:34:12.304Z,40.90
2024-02-29T02:35:06.608Z,40.91
2024-02-29T02:36:06.639Z,40.91
2024-02-29T02:37:06.744Z,40.88
2024-02-29T02:38:06.623Z,40.90
2024-02-29T02:39:27.630Z,40.87
2024-02-29T02:40:06.754Z,40.90
2024-02-29T02:41:06.620Z,40.91
2024-02-29T02:42:06.638Z,40.91
2024-02-29T02:43:06.684Z,40.93
2024-02-29T02:44:28.866Z,40.90
2024-02-29T02:45:06.624Z,40.90
2024-02-29T02:46:06.733Z,40.87
2024-02-29T02:47:06.643Z,40.88
2024-02-29T02:48:06.702Z,40.91
2024-02-29T02:49:06.802Z,40.90
2024-02-29T02:50:06.746Z,40.85
2024-02-29T02:51:06.659Z,40.90
2024-02-29T02:52:06.722Z,40.85
2024-02-29T02:53:06.654Z,40.91
2024-02-29T02:54:06.666Z,40.88
2024-02-29T02:55:06.808Z,40.85
2024-02-29T02:56:06.666Z,40.85
2024-02-29T02:57:06.669Z,40.83
2024-02-29T02:58:06.722Z,40.83
2024-02-29T02:59:06.679Z,40.85
2024-02-29T03:00:06.688Z,40.86
2024-02-29T03:01:06.723Z,40.90
2024-02-29T03:02:06.746Z,40.93
2024-02-29T03:03:06.683Z,40.98
2024-02-29T03:04:06.781Z,40.96
2024-02-29T03:05:06.769Z,40.89
2024-02-29T03:06:06.835Z,40.88
2024-02-29T03:07:06.955Z,40.90
2024-02-29T03:08:07.039Z,40.83
2024-02-29T03:09:07.013Z,40.82
2024-02-29T03:10:07.137Z,40.83
2024-02-29T03:11:07.236Z,40.78
2024-02-29T03:12:07.222Z,40.71
2024-02-29T03:13:07.362Z,40.78
2024-02-29T03:14:12.182Z,40.71
2024-02-29T03:15:07.300Z,40.64
2024-02-29T03:16:07.370Z,40.57
2024-02-29T03:17:07.305Z,40.54
2024-02-29T03:18:07.386Z,40.46
2024-02-29T03:19:07.351Z,40.43
2024-02-29T03:20:07.367Z,40.39
2024-02-29T03:21:07.401Z,40.33
2024-02-29T03:22:07.465Z,40.28
2024-02-29T03:23:07.382Z,40.21
2024-02-29T03:24:07.336Z,40.19
2024-02-29T03:25:07.366Z,40.08
2024-02-29T03:26:07.346Z,40.10
2024-02-29T03:27:07.348Z,40.04
2024-02-29T03:28:07.472Z,39.91
2024-02-29T03:29:07.321Z,39.94
2024-02-29T03:30:07.348Z,39.93
2024-02-29T03:31:07.381Z,39.81
2024-02-29T03:32:07.346Z,39.79
2024-02-29T03:33:07.384Z,39.75
2024-02-29T03:34:07.441Z,39.75
2024-02-29T03:35:07.365Z,39.65
2024-02-29T03:36:07.395Z,39.60
2024-02-29T03:37:07.445Z,39.60
2024-02-29T03:38:07.406Z,39.58
2024-02-29T03:39:07.397Z,39.51
2024-02-29T03:40:07.496Z,39.47
2024-02-29T03:41:07.412Z,39.43
2024-02-29T03:42:07.415Z,39.37
2024-02-29T03:43:07.478Z,39.35
2024-02-29T03:44:07.466Z,39.35
2024-02-29T03:45:07.435Z,39.28
2024-02-29T03:46:07.520Z,39.26
2024-02-29T03:47:07.439Z,39.24
2024-02-29T03:48:07.533Z,39.18
2024-02-29T03:49:07.521Z,39.17
2024-02-29T03:50:07.528Z,39.17
2024-02-29T03:51:07.543Z,39.08
2024-02-29T03:52:07.581Z,39.08
2024-02-29T03:53:07.614Z,39.07
2024-02-29T03:54:07.636Z,39.05
2024-02-29T03:55:07.732Z,39.04
2024-02-29T03:56:07.757Z,39.03
2024-02-29T03:57:07.780Z,38.98
2024-02-29T03:58:07.961Z,38.92
2024-02-29T03:59:07.930Z,38.92
2024-02-29T04:00:08.099Z,38.92
2024-02-29T04:01:08.313Z,38.88
2024-02-29T04:02:08.114Z,38.87
2024-02-29T04:03:08.195Z,38.84
2024-02-29T04:04:08.318Z,38.86
2024-02-29T04:05:08.332Z,38.78
2024-02-29T04:06:08.414Z,38.79
2024-02-29T04:07:08.662Z,38.81
2024-02-29T04:08:08.547Z,38.77
2024-02-29T04:09:13.682Z,38.79
2024-02-29T04:10:08.670Z,38.76
2024-02-29T04:11:08.692Z,38.71
2024-02-29T04:12:08.637Z,38.70
2024-02-29T04:13:08.752Z,38.69
2024-02-29T04:14:08.641Z,38.69
2024-02-29T04:15:08.633Z,38.65
2024-02-29T04:16:08.714Z,38.64
2024-02-29T04:17:08.803Z,38.62
2024-02-29T04:18:08.892Z,38.59
2024-02-29T04:19:08.996Z,38.61
2024-02-29T04:20:08.978Z,38.61
2024-02-29T04:21:09.039Z,38.54
2024-02-29T04:22:09.134Z,38.55
2024-02-29T04:23:09.167Z,38.53
2024-02-29T04:24:09.225Z,38.53
2024-02-29T04:25:09.314Z,38.55
2024-02-29T04:26:09.344Z,38.55
2024-02-29T04:27:09.434Z,38.50
2024-02-29T04:28:09.532Z,38.50
2024-02-29T04:29:09.542Z,38.46
2024-02-29T04:30:09.609Z,38.46
2024-02-29T04:31:09.734Z,38.45
2024-02-29T04:32:09.720Z,38.48
2024-02-29T04:33:09.786Z,38.49
2024-02-29T04:34:09.888Z,38.43
2024-02-29T04:35:09.968Z,38.43
2024-02-29T04:36:09.956Z,38.40
2024-02-29T04:37:10.112Z,38.39
2024-02-29T04:38:10.026Z,38.42
2024-02-29T04:39:10.089Z,38.42
2024-02-29T04:40:11.517Z,38.37
2024-02-29T04:41:10.206Z,38.37
2024-02-29T04:42:10.243Z,38.42
2024-02-29T04:43:10.338Z,38.34
2024-02-29T04:44:10.350Z,38.39
2024-02-29T04:45:10.435Z,38.37
2024-02-29T04:46:10.533Z,38.37
2024-02-29T04:47:17.856Z,38.39
2024-02-29T04:48:17.873Z,38.35
2024-02-29T04:49:17.910Z,38.33
2024-02-29T04:50:17.849Z,38.32
2024-02-29T04:51:17.859Z,38.32
2024-02-29T04:52:17.866Z,38.22
2024-02-29T04:53:17.864Z,38.25
2024-02-29T04:54:38.888Z,38.28
2024-02-29T04:55:17.917Z,38.24
2024-02-29T04:56:17.873Z,38.22
2024-02-29T04:57:17.868Z,38.20
2024-02-29T04:58:17.936Z,38.22
2024-02-29T04:59:21.700Z,38.20
2024-02-29T05:00:17.929Z,38.18
2024-02-29T05:01:18.003Z,38.18
2024-02-29T05:02:17.987Z,38.18
2024-02-29T05:03:18.468Z,38.21
2024-02-29T05:04:17.908Z,38.17
2024-02-29T05:05:21.728Z,38.14
2024-02-29T05:06:17.887Z,38.15
2024-02-29T05:07:17.967Z,38.10
2024-02-29T05:08:17.901Z,38.09
2024-02-29T05:09:17.885Z,38.06
2024-02-29T05:10:18.003Z,38.11
2024-02-29T05:11:17.918Z,38.06
2024-02-29T05:12:17.894Z,38.08
2024-02-29T05:13:17.908Z,38.08
2024-02-29T05:14:17.882Z,38.04
2024-02-29T05:15:17.905Z,38.03
2024-02-29T05:16:17.939Z,38.04
2024-02-29T05:17:17.902Z,37.97
2024-02-29T05:18:17.968Z,37.96
2024-02-29T05:19:17.985Z,37.96
2024-02-29T05:20:17.936Z,37.96
2024-02-29T05:21:17.901Z,37.95
2024-02-29T05:22:17.932Z,37.95
2024-02-29T05:23:17.906Z,37.94
2024-02-29T05:24:17.909Z,37.94
2024-02-29T05:25:18.074Z,37.88
2024-02-29T05:26:17.908Z,37.87
2024-02-29T05:27:17.903Z,37.86
2024-02-29T05:28:17.975Z,37.89
2024-02-29T05:29:17.955Z,37.92
2024-02-29T05:30:17.921Z,37.84
2024-02-29T05:31:17.973Z,37.87
2024-02-29T05:32:19.070Z,37.84
2024-02-29T05:33:18.042Z,37.84
2024-02-29T05:34:18.088Z,37.85
2024-02-29T05:35:17.949Z,37.89
2024-02-29T05:36:17.950Z,37.84
2024-02-29T05:37:18.025Z,37.86
2024-02-29T05:38:17.938Z,37.85
2024-02-29T05:39:17.948Z,37.86
2024-02-29T05:40:18.019Z,37.85
2024-02-29T05:41:17.965Z,37.84
2024-02-29T05:42:17.943Z,37.86
2024-02-29T05:43:17.977Z,37.89
2024-02-29T05:44:17.942Z,37.86
2024-02-29T05:45:17.958Z,37.86
2024-02-29T05:46:18.035Z,37.85
2024-02-29T05:47:17.953Z,37.85
2024-02-29T05:48:17.959Z,37.85
2024-02-29T05:49:18.026Z,37.88
2024-02-29T05:50:17.969Z,37.89
2024-02-29T05:51:17.952Z,37.90
2024-02-29T05:52:17.994Z,37.88
2024-02-29T05:53:17.961Z,37.87
2024-02-29T05:54:17.987Z,37.90
2024-02-29T05:55:18.165Z,37.86
2024-02-29T05:56:18.081Z,37.91
2024-02-29T05:57:18.112Z,37.91
2024-02-29T05:58:18.167Z,37.92
2024-02-29T05:59:18.146Z,37.90
2024-02-29T06:00:18.161Z,37.91
2024-02-29T06:01:18.257Z,37.93
2024-02-29T06:02:18.257Z,37.87
2024-02-29T06:03:18.277Z,37.87
2024-02-29T06:04:18.452Z,37.87
2024-02-29T06:05:18.348Z,37.89
2024-02-29T06:06:18.368Z,37.87
2024-02-29T06:07:18.443Z,37.85
2024-02-29T06:08:18.445Z,37.90
2024-02-29T06:09:18.478Z,37.93
2024-02-29T06:10:18.579Z,37.90
2024-02-29T06:11:18.561Z,37.94
2024-02-29T06:12:18.563Z,37.93
2024-02-29T06:13:18.687Z,37.85
2024-02-29T06:14:18.644Z,37.93
2024-02-29T06:15:18.637Z,37.86
2024-02-29T06:16:18.684Z,37.84
2024-02-29T06:17:18.712Z,37.88
2024-02-29T06:18:18.751Z,37.85
2024-02-29T06:19:18.873Z,37.84
2024-02-29T06:20:18.777Z,37.81
2024-02-29T06:21:18.777Z,37.85
2024-02-29T06:22:18.839Z,37.86
2024-02-29T06:23:18.816Z,37.79
2024-02-29T06:24:18.822Z,37.76
2024-02-29T06:25:19.281Z,37.76
2024-02-29T06:26:18.901Z,37.75
2024-02-29T06:27:18.886Z,37.81
2024-02-29T06:28:22.925Z,37.78
2024-02-29T06:29:20.005Z,37.74
2024-02-29T06:30:18.930Z,37.77
2024-02-29T06:31:19.106Z,37.74
2024-02-29T06:32:18.934Z,37.74
2024-02-29T06:33:18.954Z,36.49
2024-02-29T06:34:18.985Z,35.17
2024-02-29T06:35:18.952Z,34.81
2024-02-29T06:36:18.924Z,34.49
2024-02-29T06:37:18.970Z,34.38
2024-02-29T06:38:18.921Z,34.44
2024-02-29T06:39:18.925Z,34.36
2024-02-29T06:40:19.022Z,34.49
2024-02-29T06:41:18.944Z,34.62
2024-02-29T06:42:18.948Z,34.81
2024-02-29T06:43:19.218Z,35.05
2024-02-29T06:44:18.946Z,35.29
2024-02-29T06:45:18.982Z,35.47
2024-02-29T06:46:19.065Z,35.63
2024-02-29T06:47:19.004Z,35.73
2024-02-29T06:48:19.077Z,35.90
2024-02-29T06:49:19.128Z,36.15
2024-02-29T06:50:19.164Z,36.40
2024-02-29T06:51:19.168Z,36.64
2024-02-29T06:52:19.353Z,37.14
2024-02-29T06:53:19.222Z,37.47
2024-02-29T06:54:19.297Z,37.87
2024-02-29T06:55:19.454Z,38.26
2024-02-29T06:56:19.414Z,38.68
2024-02-29T06:57:19.446Z,38.95
2024-02-29T06:58:19.566Z,39.14
2024-02-29T06:59:19.486Z,39.35
2024-02-29T07:00:19.513Z,39.71
2024-02-29T07:01:19.552Z,39.97
2024-02-29T07:02:19.526Z,40.45
2024-02-29T07:03:19.535Z,40.48
2024-02-29T07:04:19.744Z,40.30
2024-02-29T07:05:19.703Z,40.18
2024-02-29T07:06:19.670Z,40.75
2024-02-29T07:07:19.720Z,40.65
2024-02-29T07:08:19.744Z,40.34
2024-02-29T07:09:19.773Z,40.38
2024-02-29T07:10:19.899Z,40.25
2024-02-29T07:11:19.830Z,40.30
2024-02-29T07:12:19.924Z,40.38
2024-02-29T07:13:20.014Z,40.33
2024-02-29T07:14:19.983Z,40.22
2024-02-29T07:15:20.022Z,40.18
2024-02-29T07:16:20.047Z,40.07
2024-02-29T07:17:20.037Z,40.22
2024-02-29T07:18:20.066Z,40.21
2024-02-29T07:19:20.101Z,40.07
2024-02-29T07:20:20.130Z,39.87
2024-02-29T07:21:20.177Z,39.87
2024-02-29T07:22:20.322Z,39.86
2024-02-29T07:23:20.338Z,40.89
2024-02-29T07:24:20.383Z,40.76
2024-02-29T07:25:20.487Z,40.28
2024-02-29T07:26:20.496Z,40.24
2024-02-29T07:27:20.527Z,40.21
2024-02-29T07:28:20.639Z,40.21
2024-02-29T07:29:20.590Z,40.18
2024-02-29T07:30:20.700Z,40.32
2024-02-29T07:31:20.695Z,40.27
2024-02-29T07:32:20.703Z,40.26
2024-02-29T07:33:20.791Z,40.34
2024-02-29T07:34:20.763Z,40.35
2024-02-29T07:35:20.703Z,40.39
2024-02-29T07:36:20.745Z,40.37
2024-02-29T07:37:20.915Z,40.49
2024-02-29T07:38:20.753Z,40.48
2024-02-29T07:39:20.770Z,40.48
2024-02-29T07:40:20.926Z,40.54
2024-02-29T07:41:20.768Z,40.57
2024-02-29T07:42:20.797Z,40.60
2024-02-29T07:43:20.945Z,40.67
2024-02-29T07:44:20.866Z,40.58
2024-02-29T07:45:21.399Z,40.60
2024-02-29T07:46:21.022Z,40.66
2024-02-29T07:47:21.070Z,40.68
2024-02-29T07:48:21.161Z,40.73
2024-02-29T07:49:21.273Z,40.77
2024-02-29T07:50:21.272Z,40.79
2024-02-29T07:51:21.340Z,40.73
2024-02-29T07:52:21.552Z,40.86
2024-02-29T07:53:21.513Z,40.77
2024-02-29T07:54:21.601Z,40.83
2024-02-29T07:55:21.706Z,40.94
2024-02-29T07:56:21.732Z,41.07
2024-02-29T07:57:21.720Z,41.39
2024-02-29T07:58:21.873Z,41.34
2024-02-29T07:59:21.820Z,41.36
2024-02-29T08:00:21.882Z,41.44
2024-02-29T08:01:22.019Z,41.38
2024-02-29T08:02:24.684Z,41.65
2024-02-29T08:03:21.997Z,41.57
2024-02-29T08:04:22.048Z,41.67
2024-02-29T08:05:22.004Z,41.58
2024-02-29T08:06:21.995Z,41.70
2024-02-29T08:07:22.065Z,41.65
2024-02-29T08:08:22.009Z,41.63
2024-02-29T08:09:22.002Z,41.71
2024-02-29T08:10:22.095Z,41.70
2024-02-29T08:11:22.106Z,41.82
2024-02-29T08:12:22.003Z,41.73
2024-02-29T08:13:22.023Z,41.87
2024-02-29T08:14:22.038Z,41.92
2024-02-29T08:15:22.026Z,41.89
2024-02-29T08:16:22.021Z,41.88
2024-02-29T08:17:22.013Z,41.85
2024-02-29T08:18:22.019Z,41.89
2024-02-29T08:19:22.089Z,41.90
2024-02-29T08:20:22.034Z,41.93
2024-02-29T08:21:22.016Z,41.95
2024-02-29T08:22:22.038Z,42.06
2024-02-29T08:23:22.022Z,42.03
2024-02-29T08:24:22.060Z,42.08
2024-02-29T08:25:22.050Z,42.25
2024-02-29T08:26:22.014Z,42.31
2024-02-29T08:27:22.019Z,42.32
2024-02-29T08:28:22.099Z,42.43
2024-02-29T08:29:22.014Z,42.54
2024-02-29T08:30:22.042Z,42.57
2024-02-29T08:31:22.080Z,42.57
2024-02-29T08:32:22.060Z,42.72
2024-02-29T08:33:22.083Z,42.71
2024-02-29T08:34:22.126Z,42.79
2024-02-29T08:35:22.047Z,42.80
2024-02-29T08:36:22.039Z,42.97
2024-02-29T08:37:22.117Z,42.86
2024-02-29T08:38:22.051Z,42.84
2024-02-29T08:39:22.037Z,42.77
2024-02-29T08:40:22.137Z,42.92
2024-02-29T08:41:22.034Z,43.00
2024-02-29T08:42:22.045Z,43.02
2024-02-29T08:43:22.082Z,43.09
2024-02-29T08:44:22.053Z,43.12
2024-02-29T08:45:23.015Z,43.21
2024-02-29T08:46:22.143Z,43.24
2024-02-29T08:47:22.053Z,43.21
2024-02-29T08:48:22.063Z,43.13
2024-02-29T08:49:22.157Z,43.13
2024-02-29T08:50:22.074Z,43.17
2024-02-29T08:51:22.081Z,43.06
2024-02-29T08:52:22.107Z,42.98
2024-02-29T08:53:22.065Z,40.75
2024-02-29T08:54:22.062Z,36.46
2024-02-29T08:55:22.196Z,35.30
2024-02-29T08:56:22.068Z,34.54
2024-02-29T08:57:22.078Z,34.60
2024-02-29T08:58:22.240Z,34.23
2024-02-29T08:59:22.054Z,35.35
2024-02-29T09:00:22.084Z,38.67
2024-02-29T09:01:22.088Z,39.87
2024-02-29T09:02:22.063Z,40.48
2024-02-29T09:03:22.065Z,40.36
2024-02-29T09:04:22.101Z,40.22
2024-02-29T09:05:22.102Z,40.25
2024-02-29T09:06:22.073Z,40.20
2024-02-29T09:07:22.129Z,40.14
2024-02-29T09:08:22.966Z,40.09
2024-02-29T09:09:22.062Z,40.13
2024-02-29T09:10:22.111Z,40.07
2024-02-29T09:11:22.140Z,40.02
2024-02-29T09:12:22.098Z,40.07
2024-02-29T09:14:22.101Z,40.03
2024-02-29T09:15:22.080Z,40.07
2024-02-29T09:16:22.162Z,40.06
2024-02-29T09:17:22.097Z,40.04
2024-02-29T09:18:22.107Z,39.94
2024-02-29T09:19:22.210Z,40.04
2024-02-29T09:20:22.117Z,40.07
2024-02-29T09:21:22.081Z,40.02
2024-02-29T09:22:22.166Z,40.06
2024-02-29T09:23:22.089Z,40.05
2024-02-29T09:24:22.096Z,40.09
2024-02-29T09:25:22.233Z,40.13
2024-02-29T09:26:22.109Z,40.19
2024-02-29T09:27:22.116Z,40.20
2024-02-29T09:28:22.246Z,40.28
2024-02-29T09:29:24.142Z,40.29
2024-02-29T09:30:22.139Z,40.33
2024-02-29T09:31:22.337Z,40.35
2024-02-29T09:32:22.106Z,40.37
2024-02-29T09:33:22.099Z,40.44
2024-02-29T09:34:22.231Z,40.39
2024-02-29T09:35:22.127Z,40.43
2024-02-29T09:36:22.121Z,40.51
2024-02-29T09:37:22.130Z,40.49
2024-02-29T09:38:22.128Z,40.54
2024-02-29T09:39:22.122Z,40.68
2024-02-29T09:40:22.454Z,40.80
2024-02-29T09:41:32.728Z,40.68
2024-02-29T09:42:23.160Z,40.78
2024-02-29T09:43:22.223Z,40.79
2024-02-29T09:44:22.125Z,40.75
2024-02-29T09:45:23.746Z,40.75
2024-02-29T09:46:22.154Z,40.77
2024-02-29T09:47:22.156Z,40.82
2024-02-29T09:48:22.154Z,40.86
2024-02-29T09:49:22.200Z,40.86
2024-02-29T09:50:22.170Z,40.90
2024-02-29T09:51:22.136Z,40.93
2024-02-29T09:52:22.172Z,40.91
2024-02-29T09:53:22.147Z,40.91
2024-02-29T09:54:22.157Z,40.93
2024-02-29T09:55:22.192Z,41.05
2024-02-29T09:56:22.159Z,41.08
2024-02-29T09:57:22.201Z,41.18
2024-02-29T09:58:22.306Z,41.29
2024-02-29T09:59:22.171Z,41.35
2024-02-29T10:00:22.191Z,41.51
2024-02-29T10:01:22.257Z,41.53
2024-02-29T10:02:22.211Z,41.61
2024-02-29T10:03:22.219Z,41.95
2024-02-29T10:04:22.261Z,41.91
2024-02-29T10:05:22.181Z,42.15
2024-02-29T10:06:22.164Z,42.63
2024-02-29T10:07:22.238Z,42.65
2024-02-29T10:08:22.166Z,42.64
2024-02-29T10:09:22.178Z,42.88
2024-02-29T10:10:22.369Z,42.94
2024-02-29T10:11:22.291Z,43.00
2024-02-29T10:12:22.228Z,42.98
2024-02-29T10:13:22.333Z,43.05
2024-02-29T10:14:22.230Z,43.16
2024-02-29T10:15:22.179Z,43.22
2024-02-29T10:16:22.745Z,43.22
2024-02-29T10:17:22.194Z,43.29
2024-02-29T10:18:22.251Z,43.27
2024-02-29T10:19:22.304Z,43.28
2024-02-29T10:20:22.208Z,43.38
2024-02-29T10:21:22.193Z,43.35
2024-02-29T10:22:22.259Z,43.41
2024-02-29T10:23:22.188Z,43.47
2024-02-29T10:24:22.198Z,43.66
2024-02-29T10:25:22.340Z,43.65
2024-02-29T10:26:22.203Z,43.82
2024-02-29T10:27:22.186Z,43.85
2024-02-29T10:28:22.259Z,43.80
2024-02-29T10:29:23.858Z,43.84
2024-02-29T10:30:22.208Z,43.92
2024-02-29T10:31:22.251Z,44.03
2024-02-29T10:32:22.241Z,44.23
2024-02-29T10:33:22.264Z,44.56
2024-02-29T10:34:22.399Z,44.76
2024-02-29T10:35:22.221Z,44.74
2024-02-29T10:36:22.212Z,44.61
2024-02-29T10:37:22.323Z,44.82
2024-02-29T10:38:22.250Z,44.82
2024-02-29T10:39:22.226Z,44.80
2024-02-29T10:40:22.347Z,44.95
2024-02-29T10:41:22.222Z,44.81
2024-02-29T10:42:22.243Z,45.06
2024-02-29T10:43:22.330Z,45.12
2024-02-29T10:44:22.230Z,45.11
2024-02-29T10:45:25.053Z,45.10
2024-02-29T10:46:22.344Z,45.04
2024-02-29T10:47:22.236Z,39.86
2024-02-29T10:48:22.243Z,40.06
2024-02-29T10:49:22.307Z,42.45
2024-02-29T10:50:22.243Z,43.98
2024-02-29T10:51:24.516Z,43.68
2024-02-29T10:52:22.285Z,43.60
2024-02-29T10:53:22.244Z,43.76
2024-02-29T10:54:22.273Z,43.85
2024-02-29T10:55:22.354Z,43.91
2024-02-29T10:56:22.273Z,44.05
2024-02-29T10:57:22.242Z,44.12
2024-02-29T10:58:22.336Z,44.23
2024-02-29T10:59:22.272Z,44.30
2024-02-29T11:00:22.258Z,44.40
2024-02-29T11:01:22.375Z,44.44
2024-02-29T11:02:22.257Z,44.46
2024-02-29T11:03:22.259Z,44.73
2024-02-29T11:04:22.292Z,44.72
2024-02-29T11:05:22.263Z,44.94
2024-02-29T11:06:22.244Z,44.96
2024-02-29T11:07:22.360Z,45.03
2024-02-29T11:08:22.252Z,45.11
2024-02-29T11:09:25.538Z,45.26
2024-02-29T11:10:23.398Z,45.32
2024-02-29T11:11:22.336Z,45.34
2024-02-29T11:12:22.262Z,45.51
2024-02-29T11:13:22.383Z,45.61
2024-02-29T11:14:22.301Z,45.69
2024-02-29T11:15:23.489Z,45.78
2024-02-29T11:16:22.307Z,45.78
2024-02-29T11:17:22.274Z,45.99
2024-02-29T11:18:22.268Z,45.94
2024-02-29T11:19:22.349Z,45.96
2024-02-29T11:20:22.330Z,46.14
2024-02-29T11:21:22.276Z,45.99
2024-02-29T11:22:22.350Z,46.03
2024-02-29T11:23:22.281Z,46.09
2024-02-29T11:24:22.393Z,46.08
2024-02-29T11:25:22.518Z,46.13
2024-02-29T11:26:22.316Z,46.18
2024-02-29T11:27:22.341Z,46.24
2024-02-29T11:28:22.412Z,46.40
2024-02-29T11:29:22.394Z,46.29
2024-02-29T11:30:22.658Z,46.42
2024-02-29T11:31:22.518Z,46.43
2024-02-29T11:32:22.468Z,46.47
2024-02-29T11:33:22.595Z,46.58
2024-02-29T11:34:22.662Z,46.62
2024-02-29T11:35:22.622Z,46.72
2024-02-29T11:36:22.575Z,46.61
2024-02-29T11:37:24.884Z,46.65
2024-02-29T11:38:29.147Z,46.76
2024-02-29T11:39:23.626Z,46.77
2024-02-29T11:40:22.680Z,46.83
2024-02-29T11:41:22.620Z,46.80
2024-02-29T11:42:22.607Z,46.96
2024-02-29T11:43:24.881Z,45.13
2024-02-29T11:44:22.606Z,41.05
2024-02-29T11:45:22.813Z,41.10
2024-02-29T11:46:22.670Z,39.67
2024-02-29T11:47:22.618Z,38.49
2024-02-29T11:48:22.623Z,37.27
2024-02-29T11:49:22.737Z,36.90
2024-02-29T11:50:22.616Z,35.74
2024-02-29T11:51:22.646Z,35.46
2024-02-29T11:52:22.657Z,34.52
2024-02-29T11:53:22.624Z,34.26
2024-02-29T11:54:24.191Z,33.90
2024-02-29T11:55:22.805Z,34.55
2024-02-29T11:56:22.638Z,33.51
2024-02-29T11:57:22.651Z,33.60
2024-02-29T11:58:22.673Z,33.40
2024-02-29T11:59:22.729Z,33.07
2024-02-29T12:00:22.621Z,32.88
2024-02-29T12:01:22.677Z,32.84
2024-02-29T12:02:22.643Z,32.67
2024-02-29T12:03:23.668Z,32.29
2024-02-29T12:04:22.824Z,34.30
2024-02-29T12:05:22.685Z,36.99
2024-02-29T12:06:22.625Z,37.47
2024-02-29T12:07:22.698Z,37.84
2024-02-29T12:08:22.694Z,37.77
2024-02-29T12:09:22.640Z,37.70
2024-02-29T12:10:22.768Z,37.76
2024-02-29T12:11:22.690Z,37.79
2024-02-29T12:12:22.645Z,37.92
2024-02-29T12:13:22.713Z,38.01
2024-02-29T12:14:22.648Z,37.97
2024-02-29T12:15:22.683Z,38.08
2024-02-29T12:16:22.703Z,38.12
2024-02-29T12:17:22.664Z,38.18
2024-02-29T12:18:22.681Z,38.25
2024-02-29T12:19:22.735Z,38.23
2024-02-29T12:20:22.654Z,38.30
2024-02-29T12:21:28.639Z,38.39
2024-02-29T12:22:23.779Z,38.40
2024-02-29T12:23:22.672Z,38.45
2024-02-29T12:24:22.681Z,38.59
2024-02-29T12:25:22.779Z,38.70
2024-02-29T12:26:22.694Z,38.69
2024-02-29T12:27:22.699Z,38.71
2024-02-29T12:28:22.720Z,38.79
2024-02-29T12:29:22.679Z,38.88
2024-02-29T12:30:22.686Z,38.90
2024-02-29T12:31:22.959Z,39.02
2024-02-29T12:32:22.695Z,39.07
2024-02-29T12:33:26.425Z,39.14
2024-02-29T12:34:23.803Z,39.27
2024-02-29T12:35:22.770Z,39.43
2024-02-29T12:36:22.818Z,39.50
2024-02-29T12:37:22.829Z,39.54
2024-02-29T12:38:22.846Z,39.54
2024-02-29T12:39:22.778Z,39.62
2024-02-29T12:40:22.909Z,39.69
2024-02-29T12:41:22.781Z,39.69
2024-02-29T12:42:22.763Z,39.73
2024-02-29T12:43:22.950Z,39.78
2024-02-29T12:44:22.815Z,39.83
2024-02-29T12:45:22.923Z,39.85
2024-02-29T12:46:23.097Z,39.93
2024-02-29T12:47:23.034Z,39.92
2024-02-29T12:48:23.097Z,39.99
2024-02-29T12:49:23.225Z,39.99
2024-02-29T12:50:23.245Z,40.03
2024-02-29T12:51:23.347Z,40.05
2024-02-29T12:52:23.395Z,40.08
2024-02-29T12:53:23.456Z,40.13
2024-02-29T12:54:23.766Z,40.14